SAS349 WADD-WARR
Flight info
| Callsign | SAS349 |
|---|---|
| Flight time | 0h 52m |
| Altitude | 26000 |
| Route | OKANG |
| Aircraft | B736/M-SDGRL/LB1 |
Departure
| Time | 2026-04-27 16:17 |
|---|---|
| Airport | Denpasar I Gusti Ngurah Rai International Airport (WADD) |
Arrival
| Time | 2026-04-27 17:09 |
|---|---|
| Airport | Juanda International Airport (WARR) |
| Time | Latitude | Longitude | Altitude | Speed | Heading |
|---|---|---|---|---|---|
| 2026-04-27 16:06 | -8.74559 | 115.16406 | 32 ft | 0 kts | 358° |
| 2026-04-27 16:09 | -8.74564 | 115.16406 | 32 ft | 3 kts | 358° |
| 2026-04-27 16:10 | -8.74612 | 115.16408 | 31 ft | 4 kts | 358° |
| 2026-04-27 16:10 | -8.74655 | 115.16409 | 32 ft | 4 kts | 353° |
| 2026-04-27 16:11 | -8.74679 | 115.16417 | 32 ft | 4 kts | 313° |
| 2026-04-27 16:11 | -8.74690 | 115.16460 | 31 ft | 0 kts | 268° |
| 2026-04-27 16:13 | -8.74692 | 115.16427 | 31 ft | 7 kts | 268° |
| 2026-04-27 16:13 | -8.74694 | 115.16357 | 32 ft | 13 kts | 268° |
| 2026-04-27 16:14 | -8.74704 | 115.16105 | 32 ft | 22 kts | 268° |
| 2026-04-27 16:14 | -8.74719 | 115.15746 | 31 ft | 29 kts | 268° |
| 2026-04-27 16:15 | -8.74757 | 115.15401 | 30 ft | 16 kts | 218° |
| 2026-04-27 16:15 | -8.74818 | 115.15392 | 29 ft | 5 kts | 179° |
| 2026-04-27 16:16 | -8.74894 | 115.15431 | 28 ft | 8 kts | 102° |
| 2026-04-27 16:16 | -8.74894 | 115.15491 | 28 ft | 18 kts | 88° |
| 2026-04-27 16:17 | -8.74835 | 115.16721 | 65 ft | 141 kts | 86° |
| 2026-04-27 16:17 | -8.74800 | 115.18905 | 1016 ft | 161 kts | 89° |
| 2026-04-27 16:18 | -8.74761 | 115.21261 | 2239 ft | 178 kts | 88° |
| 2026-04-27 16:18 | -8.74596 | 115.24203 | 2893 ft | 232 kts | 88° |
| 2026-04-27 16:19 | -8.74509 | 115.25849 | 3771 ft | 236 kts | 88° |
| 2026-04-27 16:19 | -8.74428 | 115.27507 | 4727 ft | 239 kts | 88° |
| 2026-04-27 16:20 | -8.74203 | 115.32652 | 7363 ft | 249 kts | 88° |
| 2026-04-27 16:20 | -8.74128 | 115.34412 | 8279 ft | 252 kts | 88° |
| 2026-04-27 16:20 | -8.73975 | 115.38021 | 9800 ft | 260 kts | 88° |
| 2026-04-27 16:21 | -8.73897 | 115.39869 | 10630 ft | 271 kts | 88° |
| 2026-04-27 16:21 | -8.73627 | 115.46380 | 12187 ft | 329 kts | 88° |
| 2026-04-27 16:22 | -8.73521 | 115.48702 | 13130 ft | 332 kts | 85° |
| 2026-04-27 16:22 | -8.71626 | 115.52927 | 14821 ft | 344 kts | 49° |
| 2026-04-27 16:22 | -8.69947 | 115.54664 | 15684 ft | 348 kts | 45° |
| 2026-04-27 16:23 | -8.68185 | 115.56376 | 16519 ft | 353 kts | 42° |
| 2026-04-27 16:23 | -8.63627 | 115.58231 | 18205 ft | 367 kts | 4° |
| 2026-04-27 16:23 | -8.61079 | 115.57926 | 18946 ft | 374 kts | 345° |
| 2026-04-27 16:24 | -8.58732 | 115.56732 | 19683 ft | 383 kts | 325° |
| 2026-04-27 16:24 | -8.55347 | 115.52497 | 21075 ft | 398 kts | 302° |
| 2026-04-27 16:25 | -8.52665 | 115.47564 | 22641 ft | 401 kts | 300° |
| 2026-04-27 16:25 | -8.50052 | 115.42641 | 24369 ft | 394 kts | 301° |
| 2026-04-27 16:26 | -8.47439 | 115.37834 | 25636 ft | 390 kts | 301° |
| 2026-04-27 16:26 | -8.44800 | 115.33052 | 25902 ft | 390 kts | 301° |
| 2026-04-27 16:27 | -8.42146 | 115.28271 | 25928 ft | 390 kts | 301° |
| 2026-04-27 16:27 | -8.38153 | 115.21088 | 25922 ft | 391 kts | 301° |
| 2026-04-27 16:28 | -8.35517 | 115.16323 | 25911 ft | 391 kts | 301° |
| 2026-04-27 16:28 | -8.32901 | 115.11502 | 25915 ft | 390 kts | 300° |
| 2026-04-27 16:29 | -8.28955 | 115.04322 | 25905 ft | 388 kts | 302° |
| 2026-04-27 16:30 | -8.26232 | 114.99589 | 25883 ft | 390 kts | 302° |
| 2026-04-27 16:30 | -8.23609 | 114.94833 | 25898 ft | 390 kts | 301° |
| 2026-04-27 16:31 | -8.19631 | 114.87672 | 25889 ft | 389 kts | 301° |
| 2026-04-27 16:31 | -8.16976 | 114.82898 | 25886 ft | 390 kts | 301° |
| 2026-04-27 16:32 | -8.14318 | 114.78110 | 25892 ft | 390 kts | 302° |
| 2026-04-27 16:32 | -8.12982 | 114.75725 | 25903 ft | 389 kts | 302° |
| 2026-04-27 16:33 | -8.10317 | 114.70951 | 25903 ft | 390 kts | 300° |
| 2026-04-27 16:33 | -8.09011 | 114.68552 | 25885 ft | 389 kts | 301° |
| 2026-04-27 16:33 | -8.07679 | 114.66178 | 25882 ft | 389 kts | 302° |
| 2026-04-27 16:33 | -8.06360 | 114.63835 | 25883 ft | 388 kts | 302° |
| 2026-04-27 16:34 | -8.05028 | 114.61475 | 25897 ft | 388 kts | 302° |
| 2026-04-27 16:34 | -8.03691 | 114.59105 | 25885 ft | 389 kts | 302° |
| 2026-04-27 16:34 | -8.02327 | 114.56743 | 25881 ft | 390 kts | 302° |
| 2026-04-27 16:34 | -8.00993 | 114.54360 | 25897 ft | 388 kts | 301° |
| 2026-04-27 16:35 | -7.99687 | 114.51982 | 25875 ft | 387 kts | 301° |
| 2026-04-27 16:35 | -7.98412 | 114.49588 | 25888 ft | 388 kts | 301° |
| 2026-04-27 16:35 | -7.95742 | 114.44881 | 25893 ft | 387 kts | 302° |
| 2026-04-27 16:36 | -7.94407 | 114.42519 | 25901 ft | 389 kts | 302° |
| 2026-04-27 16:36 | -7.93068 | 114.40138 | 25893 ft | 390 kts | 302° |
| 2026-04-27 16:36 | -7.91732 | 114.37756 | 25901 ft | 390 kts | 301° |
| 2026-04-27 16:36 | -7.90401 | 114.35368 | 25903 ft | 390 kts | 301° |
| 2026-04-27 16:37 | -7.89094 | 114.33016 | 25916 ft | 389 kts | 301° |
| 2026-04-27 16:37 | -7.87757 | 114.30651 | 25897 ft | 388 kts | 302° |
| 2026-04-27 16:37 | -7.86429 | 114.28271 | 25898 ft | 391 kts | 301° |
| 2026-04-27 16:37 | -7.85120 | 114.25882 | 25886 ft | 389 kts | 301° |
| 2026-04-27 16:38 | -7.83795 | 114.23504 | 25890 ft | 389 kts | 301° |
| 2026-04-27 16:38 | -7.82455 | 114.21129 | 25890 ft | 389 kts | 302° |
| 2026-04-27 16:38 | -7.81176 | 114.18865 | 25894 ft | 389 kts | 301° |
| 2026-04-27 16:38 | -7.79824 | 114.16467 | 25885 ft | 388 kts | 301° |
| 2026-04-27 16:39 | -7.78475 | 114.14116 | 25886 ft | 388 kts | 302° |
| 2026-04-27 16:39 | -7.77138 | 114.11745 | 25899 ft | 388 kts | 301° |
| 2026-04-27 16:39 | -7.75901 | 114.09318 | 25875 ft | 390 kts | 294° |
| 2026-04-27 16:39 | -7.75068 | 114.06715 | 25884 ft | 391 kts | 284° |
| 2026-04-27 16:40 | -7.74653 | 114.04006 | 25890 ft | 392 kts | 278° |
| 2026-04-27 16:40 | -7.74340 | 114.01277 | 25882 ft | 392 kts | 278° |
| 2026-04-27 16:40 | -7.74049 | 113.98569 | 25888 ft | 393 kts | 278° |
| 2026-04-27 16:40 | -7.73755 | 113.95828 | 25898 ft | 393 kts | 278° |
| 2026-04-27 16:41 | -7.73452 | 113.93086 | 25883 ft | 393 kts | 278° |
| 2026-04-27 16:41 | -7.73143 | 113.90348 | 25890 ft | 393 kts | 278° |
| 2026-04-27 16:41 | -7.72828 | 113.87614 | 25888 ft | 392 kts | 278° |
| 2026-04-27 16:41 | -7.72509 | 113.84882 | 25884 ft | 392 kts | 278° |
| 2026-04-27 16:42 | -7.72186 | 113.82148 | 25898 ft | 392 kts | 278° |
| 2026-04-27 16:42 | -7.71864 | 113.79410 | 25891 ft | 392 kts | 278° |
| 2026-04-27 16:42 | -7.71541 | 113.76674 | 25892 ft | 392 kts | 278° |
| 2026-04-27 16:42 | -7.71222 | 113.73978 | 25885 ft | 393 kts | 278° |
| 2026-04-27 16:43 | -7.70898 | 113.71237 | 25886 ft | 393 kts | 278° |
| 2026-04-27 16:43 | -7.70572 | 113.68482 | 25664 ft | 397 kts | 278° |
| 2026-04-27 16:43 | -7.70245 | 113.65726 | 25435 ft | 395 kts | 278° |
| 2026-04-27 16:43 | -7.69920 | 113.62975 | 25210 ft | 395 kts | 278° |
| 2026-04-27 16:44 | -7.69593 | 113.60220 | 24985 ft | 396 kts | 278° |
| 2026-04-27 16:44 | -7.69266 | 113.57463 | 24765 ft | 397 kts | 278° |
| 2026-04-27 16:44 | -7.68939 | 113.54702 | 24544 ft | 397 kts | 278° |
| 2026-04-27 16:44 | -7.68611 | 113.51939 | 24327 ft | 397 kts | 278° |
| 2026-04-27 16:45 | -7.68282 | 113.49163 | 24107 ft | 398 kts | 279° |
| 2026-04-27 16:45 | -7.67953 | 113.46394 | 23885 ft | 397 kts | 279° |
| 2026-04-27 16:45 | -7.67628 | 113.43663 | 23678 ft | 397 kts | 279° |
| 2026-04-27 16:45 | -7.67299 | 113.40900 | 23331 ft | 395 kts | 279° |
| 2026-04-27 16:46 | -7.66971 | 113.38150 | 22814 ft | 392 kts | 279° |
| 2026-04-27 16:46 | -7.66647 | 113.35438 | 22308 ft | 388 kts | 278° |
| 2026-04-27 16:46 | -7.66329 | 113.32744 | 21821 ft | 384 kts | 278° |
| 2026-04-27 16:46 | -7.66017 | 113.30118 | 21347 ft | 380 kts | 278° |
| 2026-04-27 16:47 | -7.65701 | 113.27480 | 20868 ft | 376 kts | 278° |
| 2026-04-27 16:47 | -7.65386 | 113.24873 | 20393 ft | 373 kts | 279° |
| 2026-04-27 16:47 | -7.64965 | 113.22313 | 19928 ft | 369 kts | 282° |
| 2026-04-27 16:47 | -7.64465 | 113.19781 | 19453 ft | 366 kts | 283° |
| 2026-04-27 16:48 | -7.63951 | 113.17269 | 18969 ft | 364 kts | 283° |
| 2026-04-27 16:48 | -7.63438 | 113.14770 | 18487 ft | 362 kts | 283° |
| 2026-04-27 16:48 | -7.62935 | 113.12284 | 17977 ft | 361 kts | 283° |
| 2026-04-27 16:49 | -7.61962 | 113.07385 | 16966 ft | 357 kts | 282° |
| 2026-04-27 16:49 | -7.61480 | 113.04935 | 16485 ft | 354 kts | 282° |
| 2026-04-27 16:49 | -7.61004 | 113.02510 | 16010 ft | 352 kts | 282° |
| 2026-04-27 16:49 | -7.60530 | 113.00088 | 15532 ft | 351 kts | 282° |
| 2026-04-27 16:50 | -7.60059 | 112.97675 | 15059 ft | 350 kts | 282° |
| 2026-04-27 16:50 | -7.59589 | 112.95274 | 14574 ft | 349 kts | 281° |
| 2026-04-27 16:50 | -7.59121 | 112.92881 | 14106 ft | 348 kts | 281° |
| 2026-04-27 16:50 | -7.58669 | 112.90570 | 13649 ft | 347 kts | 281° |
| 2026-04-27 16:51 | -7.58203 | 112.88189 | 13266 ft | 341 kts | 281° |
| 2026-04-27 16:51 | -7.57758 | 112.85914 | 13129 ft | 329 kts | 281° |
| 2026-04-27 16:51 | -7.57322 | 112.83688 | 12980 ft | 318 kts | 281° |
| 2026-04-27 16:51 | -7.56901 | 112.81541 | 12892 ft | 306 kts | 281° |
| 2026-04-27 16:52 | -7.56495 | 112.79463 | 12885 ft | 299 kts | 281° |
| 2026-04-27 16:52 | -7.56094 | 112.77414 | 12877 ft | 298 kts | 281° |
| 2026-04-27 16:52 | -7.55693 | 112.75357 | 12889 ft | 300 kts | 281° |
| 2026-04-27 16:52 | -7.55287 | 112.73278 | 12893 ft | 304 kts | 281° |
| 2026-04-27 16:53 | -7.54878 | 112.71191 | 12885 ft | 303 kts | 281° |
| 2026-04-27 16:53 | -7.54470 | 112.69106 | 12879 ft | 303 kts | 281° |
| 2026-04-27 16:53 | -7.54066 | 112.67044 | 12723 ft | 306 kts | 281° |
| 2026-04-27 16:53 | -7.53652 | 112.64933 | 12531 ft | 307 kts | 281° |
| 2026-04-27 16:54 | -7.53238 | 112.62818 | 12272 ft | 306 kts | 281° |
| 2026-04-27 16:54 | -7.52827 | 112.60725 | 12012 ft | 302 kts | 281° |
| 2026-04-27 16:54 | -7.52422 | 112.58664 | 11757 ft | 298 kts | 281° |
| 2026-04-27 16:54 | -7.52020 | 112.56620 | 11506 ft | 296 kts | 281° |
| 2026-04-27 16:55 | -7.51620 | 112.54583 | 11257 ft | 296 kts | 281° |
| 2026-04-27 16:55 | -7.51221 | 112.52550 | 11009 ft | 296 kts | 281° |
| 2026-04-27 16:55 | -7.50821 | 112.50517 | 10759 ft | 295 kts | 281° |
| 2026-04-27 16:55 | -7.50423 | 112.48487 | 10501 ft | 295 kts | 281° |
| 2026-04-27 16:56 | -7.50029 | 112.46481 | 10237 ft | 295 kts | 281° |
| 2026-04-27 16:56 | -7.49631 | 112.44453 | 9998 ft | 295 kts | 281° |
| 2026-04-27 16:56 | -7.49239 | 112.42449 | 9748 ft | 295 kts | 281° |
| 2026-04-27 16:56 | -7.48840 | 112.40416 | 9469 ft | 295 kts | 281° |
| 2026-04-27 16:57 | -7.48443 | 112.38392 | 9195 ft | 294 kts | 281° |
| 2026-04-27 16:57 | -7.48047 | 112.36375 | 8937 ft | 291 kts | 281° |
| 2026-04-27 16:57 | -7.47787 | 112.35049 | 8767 ft | 290 kts | 281° |
| 2026-04-27 16:57 | -7.47314 | 112.33090 | 8501 ft | 287 kts | 294° |
| 2026-04-27 16:58 | -7.46163 | 112.31503 | 8265 ft | 280 kts | 322° |
| 2026-04-27 16:58 | -7.44472 | 112.30619 | 8029 ft | 271 kts | 347° |
| 2026-04-27 16:58 | -7.42633 | 112.30456 | 7796 ft | 263 kts | 9° |
| 2026-04-27 16:58 | -7.40837 | 112.30732 | 7584 ft | 259 kts | 12° |
| 2026-04-27 16:59 | -7.39069 | 112.31037 | 7363 ft | 257 kts | 12° |
| 2026-04-27 16:59 | -7.37281 | 112.31342 | 7141 ft | 264 kts | 13° |
| 2026-04-27 16:59 | -7.35460 | 112.31645 | 6916 ft | 265 kts | 12° |
| 2026-04-27 16:59 | -7.33647 | 112.31944 | 6679 ft | 263 kts | 12° |
| 2026-04-27 17:00 | -7.31118 | 112.33359 | 6294 ft | 250 kts | 57° |
| 2026-04-27 17:00 | -7.30375 | 112.35505 | 6008 ft | 243 kts | 88° |
| 2026-04-27 17:00 | -7.30521 | 112.37188 | 5802 ft | 241 kts | 100° |
| 2026-04-27 17:01 | -7.30852 | 112.38847 | 5596 ft | 244 kts | 102° |
| 2026-04-27 17:01 | -7.31213 | 112.40529 | 5381 ft | 247 kts | 102° |
| 2026-04-27 17:01 | -7.31569 | 112.42202 | 5161 ft | 247 kts | 102° |
| 2026-04-27 17:01 | -7.31921 | 112.43889 | 4943 ft | 245 kts | 102° |
| 2026-04-27 17:02 | -7.32268 | 112.45564 | 4735 ft | 244 kts | 102° |
| 2026-04-27 17:02 | -7.32607 | 112.47230 | 4520 ft | 241 kts | 102° |
| 2026-04-27 17:02 | -7.32934 | 112.48849 | 4304 ft | 237 kts | 102° |
| 2026-04-27 17:02 | -7.33259 | 112.50459 | 4105 ft | 233 kts | 102° |
| 2026-04-27 17:03 | -7.33578 | 112.52046 | 3903 ft | 229 kts | 102° |
| 2026-04-27 17:03 | -7.33886 | 112.53582 | 3706 ft | 225 kts | 102° |
| 2026-04-27 17:03 | -7.34163 | 112.55116 | 3535 ft | 219 kts | 100° |
| 2026-04-27 17:03 | -7.34405 | 112.56602 | 3368 ft | 209 kts | 100° |
| 2026-04-27 17:04 | -7.34632 | 112.58011 | 3175 ft | 199 kts | 100° |
| 2026-04-27 17:04 | -7.34851 | 112.59346 | 2990 ft | 187 kts | 100° |
| 2026-04-27 17:04 | -7.35054 | 112.60606 | 2826 ft | 177 kts | 100° |
| 2026-04-27 17:04 | -7.35248 | 112.61767 | 2731 ft | 163 kts | 101° |
| 2026-04-27 17:05 | -7.35433 | 112.62853 | 2690 ft | 157 kts | 101° |
| 2026-04-27 17:05 | -7.35608 | 112.63948 | 2537 ft | 158 kts | 99° |
| 2026-04-27 17:05 | -7.35781 | 112.65017 | 2343 ft | 150 kts | 100° |
| 2026-04-27 17:05 | -7.35947 | 112.66002 | 2145 ft | 137 kts | 103° |
| 2026-04-27 17:06 | -7.36099 | 112.66945 | 1995 ft | 139 kts | 100° |
| 2026-04-27 17:06 | -7.36246 | 112.67878 | 1822 ft | 129 kts | 100° |
| 2026-04-27 17:06 | -7.36389 | 112.68754 | 1649 ft | 125 kts | 101° |
| 2026-04-27 17:06 | -7.36540 | 112.69618 | 1494 ft | 126 kts | 97° |
| 2026-04-27 17:07 | -7.36665 | 112.70492 | 1329 ft | 126 kts | 99° |
| 2026-04-27 17:07 | -7.36826 | 112.71357 | 1173 ft | 126 kts | 98° |
| 2026-04-27 17:07 | -7.36948 | 112.72233 | 1013 ft | 127 kts | 99° |
| 2026-04-27 17:07 | -7.37082 | 112.73111 | 860 ft | 127 kts | 99° |
| 2026-04-27 17:08 | -7.37226 | 112.73998 | 694 ft | 128 kts | 98° |
| 2026-04-27 17:08 | -7.37359 | 112.74868 | 547 ft | 124 kts | 99° |
| 2026-04-27 17:08 | -7.37506 | 112.75711 | 374 ft | 119 kts | 98° |
| 2026-04-27 17:08 | -7.37640 | 112.76540 | 215 ft | 125 kts | 99° |
| 2026-04-27 17:09 | -7.37777 | 112.77400 | 34 ft | 125 kts | 98° |
| 2026-04-27 17:09 | -7.37900 | 112.78170 | 7 ft | 85 kts | 99° |
| 2026-04-27 17:09 | -7.37969 | 112.78600 | 8 ft | 50 kts | 99° |
| 2026-04-27 17:09 | -7.37988 | 112.78840 | 10 ft | 25 kts | 55° |
| 2026-04-27 17:10 | -7.37830 | 112.78879 | 8 ft | 23 kts | 10° |
| 2026-04-27 17:10 | -7.37691 | 112.78911 | 9 ft | 18 kts | 42° |
| 2026-04-27 17:10 | -7.37683 | 112.79025 | 8 ft | 12 kts | 98° |
| 2026-04-27 17:10 | -7.37656 | 112.79102 | 8 ft | 12 kts | 34° |
| 2026-04-27 17:11 | -7.37634 | 112.79179 | 8 ft | 13 kts | 100° |
| 2026-04-27 17:11 | -7.37633 | 112.79306 | 8 ft | 8 kts | 28° |
| 2026-04-27 17:11 | -7.37599 | 112.79302 | 8 ft | 4 kts | 332° |
| 2026-04-27 17:12 | -7.37559 | 112.79294 | 8 ft | 0 kts | 11° |